sensor_id;sensor_type;location;lat;lon;timestamp;temperature;humidity
19279;DHT22;9773;47.062;15.446;2023-02-22T00:00:18;7.50;95.60
19279;DHT22;9773;47.062;15.446;2023-02-22T00:02:50;7.40;95.60
19279;DHT22;9773;47.062;15.446;2023-02-22T00:05:18;7.40;95.40
19279;DHT22;9773;47.062;15.446;2023-02-22T00:07:49;7.50;95.60
19279;DHT22;9773;47.062;15.446;2023-02-22T00:10:16;7.50;95.60
19279;DHT22;9773;47.062;15.446;2023-02-22T00:12:46;7.50;95.60
19279;DHT22;9773;47.062;15.446;2023-02-22T00:15:17;7.40;95.60
19279;DHT22;9773;47.062;15.446;2023-02-22T00:17:43;7.50;95.60
19279;DHT22;9773;47.062;15.446;2023-02-22T00:20:10;7.40;95.70
19279;DHT22;9773;47.062;15.446;2023-02-22T00:22:43;7.40;95.70
19279;DHT22;9773;47.062;15.446;2023-02-22T00:25:15;7.50;95.60
19279;DHT22;9773;47.062;15.446;2023-02-22T00:27:45;7.50;95.70
19279;DHT22;9773;47.062;15.446;2023-02-22T00:30:20;7.40;95.80
19279;DHT22;9773;47.062;15.446;2023-02-22T00:32:47;7.40;95.80
19279;DHT22;9773;47.062;15.446;2023-02-22T00:35:15;7.40;96.00
19279;DHT22;9773;47.062;15.446;2023-02-22T00:37:41;7.50;95.90
19279;DHT22;9773;47.062;15.446;2023-02-22T00:40:13;7.40;96.00
19279;DHT22;9773;47.062;15.446;2023-02-22T00:42:39;7.30;96.00
19279;DHT22;9773;47.062;15.446;2023-02-22T00:45:06;7.30;96.00
19279;DHT22;9773;47.062;15.446;2023-02-22T00:47:32;7.20;96.20
19279;DHT22;9773;47.062;15.446;2023-02-22T00:49:58;7.20;96.20
19279;DHT22;9773;47.062;15.446;2023-02-22T00:52:25;7.20;96.50
19279;DHT22;9773;47.062;15.446;2023-02-22T00:54:53;7.20;96.40
19279;DHT22;9773;47.062;15.446;2023-02-22T00:57:19;7.20;96.80
19279;DHT22;9773;47.062;15.446;2023-02-22T00:59:45;7.10;96.70
19279;DHT22;9773;47.062;15.446;2023-02-22T01:02:11;7.10;96.70
19279;DHT22;9773;47.062;15.446;2023-02-22T01:04:37;7.00;96.70
19279;DHT22;9773;47.062;15.446;2023-02-22T01:07:03;7.00;96.80
19279;DHT22;9773;47.062;15.446;2023-02-22T01:09:29;7.00;96.90
19279;DHT22;9773;47.062;15.446;2023-02-22T01:11:55;6.90;97.00
19279;DHT22;9773;47.062;15.446;2023-02-22T01:14:23;6.90;97.30
19279;DHT22;9773;47.062;15.446;2023-02-22T01:16:52;6.90;97.40
19279;DHT22;9773;47.062;15.446;2023-02-22T01:19:19;6.90;97.50
19279;DHT22;9773;47.062;15.446;2023-02-22T01:21:47;6.80;97.60
19279;DHT22;9773;47.062;15.446;2023-02-22T01:24:14;6.80;97.70
19279;DHT22;9773;47.062;15.446;2023-02-22T01:26:48;6.70;97.90
19279;DHT22;9773;47.062;15.446;2023-02-22T01:29:15;6.80;97.70
19279;DHT22;9773;47.062;15.446;2023-02-22T01:31:42;6.80;97.60
19279;DHT22;9773;47.062;15.446;2023-02-22T01:34:09;6.80;97.70
19279;DHT22;9773;47.062;15.446;2023-02-22T01:36:35;6.90;97.70
19279;DHT22;9773;47.062;15.446;2023-02-22T01:39:02;6.80;97.50
19279;DHT22;9773;47.062;15.446;2023-02-22T01:41:28;6.80;97.80
19279;DHT22;9773;47.062;15.446;2023-02-22T01:43:53;6.70;97.80
19279;DHT22;9773;47.062;15.446;2023-02-22T01:46:21;6.80;97.80
19279;DHT22;9773;47.062;15.446;2023-02-22T01:48:54;6.80;97.80
19279;DHT22;9773;47.062;15.446;2023-02-22T01:51:24;6.80;97.80
19279;DHT22;9773;47.062;15.446;2023-02-22T01:53:58;6.70;97.80
19279;DHT22;9773;47.062;15.446;2023-02-22T01:56:26;6.80;97.70
19279;DHT22;9773;47.062;15.446;2023-02-22T01:58:56;6.70;97.80
19279;DHT22;9773;47.062;15.446;2023-02-22T02:01:24;6.60;97.90
19279;DHT22;9773;47.062;15.446;2023-02-22T02:03:54;6.70;98.00
19279;DHT22;9773;47.062;15.446;2023-02-22T02:06:23;6.70;98.00
19279;DHT22;9773;47.062;15.446;2023-02-22T02:11:22;6.60;98.20
19279;DHT22;9773;47.062;15.446;2023-02-22T02:13:52;6.50;98.20
19279;DHT22;9773;47.062;15.446;2023-02-22T02:16:23;6.50;98.20
19279;DHT22;9773;47.062;15.446;2023-02-22T02:18:50;6.60;98.50
19279;DHT22;9773;47.062;15.446;2023-02-22T02:21:46;6.50;98.50
19279;DHT22;9773;47.062;15.446;2023-02-22T02:27:11;6.40;98.50
19279;DHT22;9773;47.062;15.446;2023-02-22T02:35:41;6.30;99.00
19279;DHT22;9773;47.062;15.446;2023-02-22T02:41:11;6.30;99.00
19279;DHT22;9773;47.062;15.446;2023-02-22T02:43:46;6.20;99.20
19279;DHT22;9773;47.062;15.446;2023-02-22T02:46:23;6.20;99.40
19279;DHT22;9773;47.062;15.446;2023-02-22T02:49:01;6.20;99.40
19279;DHT22;9773;47.062;15.446;2023-02-22T02:51:33;6.20;99.30
19279;DHT22;9773;47.062;15.446;2023-02-22T02:54:01;6.20;99.20
19279;DHT22;9773;47.062;15.446;2023-02-22T02:56:28;6.10;99.40
19279;DHT22;9773;47.062;15.446;2023-02-22T02:58:54;6.10;99.50
19279;DHT22;9773;47.062;15.446;2023-02-22T03:07:37;6.10;99.60
19279;DHT22;9773;47.062;15.446;2023-02-22T03:21:11;6.00;99.80
19279;DHT22;9773;47.062;15.446;2023-02-22T03:23:50;6.10;99.90
19279;DHT22;9773;47.062;15.446;2023-02-22T03:26:32;6.00;99.90
19279;DHT22;9773;47.062;15.446;2023-02-22T03:29:00;6.00;99.90
19279;DHT22;9773;47.062;15.446;2023-02-22T03:31:35;5.90;99.90
19279;DHT22;9773;47.062;15.446;2023-02-22T03:34:08;5.90;99.90
19279;DHT22;9773;47.062;15.446;2023-02-22T03:36:40;5.90;99.90
19279;DHT22;9773;47.062;15.446;2023-02-22T03:39:10;5.90;99.90
19279;DHT22;9773;47.062;15.446;2023-02-22T03:41:44;5.90;99.90
19279;DHT22;9773;47.062;15.446;2023-02-22T03:44:15;5.90;99.90
19279;DHT22;9773;47.062;15.446;2023-02-22T03:46:45;5.90;99.90
19279;DHT22;9773;47.062;15.446;2023-02-22T03:51:45;6.00;99.90
19279;DHT22;9773;47.062;15.446;2023-02-22T03:54:11;6.00;99.90
19279;DHT22;9773;47.062;15.446;2023-02-22T03:56:49;5.90;99.90
19279;DHT22;9773;47.062;15.446;2023-02-22T03:59:17;5.90;99.90
19279;DHT22;9773;47.062;15.446;2023-02-22T04:01:44;5.90;99.90
19279;DHT22;9773;47.062;15.446;2023-02-22T04:04:10;5.90;99.90
19279;DHT22;9773;47.062;15.446;2023-02-22T04:06:35;5.90;99.90
19279;DHT22;9773;47.062;15.446;2023-02-22T04:09:01;5.80;99.90
19279;DHT22;9773;47.062;15.446;2023-02-22T04:11:27;5.80;99.90
19279;DHT22;9773;47.062;15.446;2023-02-22T04:13:53;5.80;99.90
19279;DHT22;9773;47.062;15.446;2023-02-22T04:16:19;5.70;99.90
19279;DHT22;9773;47.062;15.446;2023-02-22T04:18:45;5.70;99.90
19279;DHT22;9773;47.062;15.446;2023-02-22T04:21:11;5.70;99.90
19279;DHT22;9773;47.062;15.446;2023-02-22T04:23:36;5.70;99.90
19279;DHT22;9773;47.062;15.446;2023-02-22T04:26:02;5.80;99.90
19279;DHT22;9773;47.062;15.446;2023-02-22T04:28:28;5.80;99.90
19279;DHT22;9773;47.062;15.446;2023-02-22T04:30:53;5.80;99.90
19279;DHT22;9773;47.062;15.446;2023-02-22T04:33:19;5.80;99.90
19279;DHT22;9773;47.062;15.446;2023-02-22T04:35:45;5.80;99.90
19279;DHT22;9773;47.062;15.446;2023-02-22T04:38:11;5.80;99.90
19279;DHT22;9773;47.062;15.446;2023-02-22T04:40:37;5.80;99.90
19279;DHT22;9773;47.062;15.446;2023-02-22T04:43:03;5.80;99.90
19279;DHT22;9773;47.062;15.446;2023-02-22T04:45:29;5.70;99.90
19279;DHT22;9773;47.062;15.446;2023-02-22T04:47:55;5.70;99.90
19279;DHT22;9773;47.062;15.446;2023-02-22T04:50:21;5.70;99.90
19279;DHT22;9773;47.062;15.446;2023-02-22T04:52:47;5.70;99.90
19279;DHT22;9773;47.062;15.446;2023-02-22T04:55:12;5.70;99.90
19279;DHT22;9773;47.062;15.446;2023-02-22T04:57:38;5.70;99.90
19279;DHT22;9773;47.062;15.446;2023-02-22T05:00:05;5.70;99.90
19279;DHT22;9773;47.062;15.446;2023-02-22T05:02:31;5.70;99.90
19279;DHT22;9773;47.062;15.446;2023-02-22T05:04:57;5.60;99.90
19279;DHT22;9773;47.062;15.446;2023-02-22T05:07:23;5.60;99.90
19279;DHT22;9773;47.062;15.446;2023-02-22T05:09:48;5.70;99.90
19279;DHT22;9773;47.062;15.446;2023-02-22T05:12:14;5.70;99.90
19279;DHT22;9773;47.062;15.446;2023-02-22T05:14:40;5.60;99.90
19279;DHT22;9773;47.062;15.446;2023-02-22T05:17:06;5.60;99.90
19279;DHT22;9773;47.062;15.446;2023-02-22T05:19:32;5.70;99.90
19279;DHT22;9773;47.062;15.446;2023-02-22T05:21:58;5.70;99.90
19279;DHT22;9773;47.062;15.446;2023-02-22T05:24:24;5.70;99.90
19279;DHT22;9773;47.062;15.446;2023-02-22T05:26:50;5.70;99.90
19279;DHT22;9773;47.062;15.446;2023-02-22T05:29:18;5.60;99.90
19279;DHT22;9773;47.062;15.446;2023-02-22T05:31:44;5.60;99.90
19279;DHT22;9773;47.062;15.446;2023-02-22T05:34:10;5.70;99.90
19279;DHT22;9773;47.062;15.446;2023-02-22T05:36:36;5.60;99.90
19279;DHT22;9773;47.062;15.446;2023-02-22T05:39:01;5.50;99.90
19279;DHT22;9773;47.062;15.446;2023-02-22T05:41:27;5.50;99.90
19279;DHT22;9773;47.062;15.446;2023-02-22T05:43:54;5.60;99.90
19279;DHT22;9773;47.062;15.446;2023-02-22T05:46:20;5.60;99.90
19279;DHT22;9773;47.062;15.446;2023-02-22T05:48:46;5.60;99.90
19279;DHT22;9773;47.062;15.446;2023-02-22T05:51:11;5.60;99.90
19279;DHT22;9773;47.062;15.446;2023-02-22T05:53:37;5.60;99.90
19279;DHT22;9773;47.062;15.446;2023-02-22T05:56:03;5.60;99.90
19279;DHT22;9773;47.062;15.446;2023-02-22T05:58:29;5.70;99.90
19279;DHT22;9773;47.062;15.446;2023-02-22T06:00:55;5.70;99.90
19279;DHT22;9773;47.062;15.446;2023-02-22T06:03:21;5.70;99.90
19279;DHT22;9773;47.062;15.446;2023-02-22T06:05:47;5.80;99.90
19279;DHT22;9773;47.062;15.446;2023-02-22T06:08:12;5.70;99.90
19279;DHT22;9773;47.062;15.446;2023-02-22T06:10:38;5.80;99.90
19279;DHT22;9773;47.062;15.446;2023-02-22T06:13:05;5.70;99.90
19279;DHT22;9773;47.062;15.446;2023-02-22T06:15:31;5.70;99.90
19279;DHT22;9773;47.062;15.446;2023-02-22T06:17:57;5.70;99.90
19279;DHT22;9773;47.062;15.446;2023-02-22T06:20:25;5.70;99.90
19279;DHT22;9773;47.062;15.446;2023-02-22T06:22:53;5.70;99.90
19279;DHT22;9773;47.062;15.446;2023-02-22T06:25:24;5.80;99.90
19279;DHT22;9773;47.062;15.446;2023-02-22T06:27:50;5.90;99.90
19279;DHT22;9773;47.062;15.446;2023-02-22T06:30:20;5.80;99.90
19279;DHT22;9773;47.062;15.446;2023-02-22T06:32:46;5.90;99.90
19279;DHT22;9773;47.062;15.446;2023-02-22T06:35:13;5.90;99.90
19279;DHT22;9773;47.062;15.446;2023-02-22T06:37:39;5.90;99.90
19279;DHT22;9773;47.062;15.446;2023-02-22T06:40:05;5.90;99.90
19279;DHT22;9773;47.062;15.446;2023-02-22T06:42:31;5.90;99.90
19279;DHT22;9773;47.062;15.446;2023-02-22T06:44:57;6.00;99.90
19279;DHT22;9773;47.062;15.446;2023-02-22T06:47:23;6.10;99.90
19279;DHT22;9773;47.062;15.446;2023-02-22T06:49:53;6.20;99.90
19279;DHT22;9773;47.062;15.446;2023-02-22T06:52:19;6.20;99.90
19279;DHT22;9773;47.062;15.446;2023-02-22T06:54:44;6.20;99.90
19279;DHT22;9773;47.062;15.446;2023-02-22T06:57:10;6.30;99.90
19279;DHT22;9773;47.062;15.446;2023-02-22T06:59:36;6.40;99.90
19279;DHT22;9773;47.062;15.446;2023-02-22T07:02:02;6.30;99.90
19279;DHT22;9773;47.062;15.446;2023-02-22T07:04:28;6.30;99.90
19279;DHT22;9773;47.062;15.446;2023-02-22T07:06:54;6.30;99.90
19279;DHT22;9773;47.062;15.446;2023-02-22T07:09:20;6.30;99.90
19279;DHT22;9773;47.062;15.446;2023-02-22T07:11:46;6.40;99.90
19279;DHT22;9773;47.062;15.446;2023-02-22T07:14:12;6.40;99.90
19279;DHT22;9773;47.062;15.446;2023-02-22T07:16:38;6.30;99.90
19279;DHT22;9773;47.062;15.446;2023-02-22T07:19:04;6.40;99.90
19279;DHT22;9773;47.062;15.446;2023-02-22T07:21:30;6.40;99.90
19279;DHT22;9773;47.062;15.446;2023-02-22T07:23:56;6.40;99.90
19279;DHT22;9773;47.062;15.446;2023-02-22T07:26:24;6.40;99.90
19279;DHT22;9773;47.062;15.446;2023-02-22T07:28:50;6.40;99.90
19279;DHT22;9773;47.062;15.446;2023-02-22T07:31:16;6.60;99.90
19279;DHT22;9773;47.062;15.446;2023-02-22T07:33:45;6.60;99.90
19279;DHT22;9773;47.062;15.446;2023-02-22T07:36:12;6.60;99.90
19279;DHT22;9773;47.062;15.446;2023-02-22T07:38:44;6.60;99.90
19279;DHT22;9773;47.062;15.446;2023-02-22T07:41:12;6.70;99.90
19279;DHT22;9773;47.062;15.446;2023-02-22T07:43:38;6.80;99.90
19279;DHT22;9773;47.062;15.446;2023-02-22T07:46:04;6.90;99.90
19279;DHT22;9773;47.062;15.446;2023-02-22T07:48:30;7.00;99.90
19279;DHT22;9773;47.062;15.446;2023-02-22T07:50:57;7.10;99.90
19279;DHT22;9773;47.062;15.446;2023-02-22T07:53:28;7.20;99.90
19279;DHT22;9773;47.062;15.446;2023-02-22T07:55:59;7.30;99.90
19279;DHT22;9773;47.062;15.446;2023-02-22T07:58:28;7.50;99.90
19279;DHT22;9773;47.062;15.446;2023-02-22T08:00:54;7.70;99.90
19279;DHT22;9773;47.062;15.446;2023-02-22T08:03:23;7.80;99.90
19279;DHT22;9773;47.062;15.446;2023-02-22T08:05:53;7.80;99.90
19279;DHT22;9773;47.062;15.446;2023-02-22T08:08:20;7.90;99.90
19279;DHT22;9773;47.062;15.446;2023-02-22T08:10:46;8.00;99.90
19279;DHT22;9773;47.062;15.446;2023-02-22T08:13:12;8.10;99.90
19279;DHT22;9773;47.062;15.446;2023-02-22T08:15:40;8.10;99.90
19279;DHT22;9773;47.062;15.446;2023-02-22T08:18:11;8.20;99.90
19279;DHT22;9773;47.062;15.446;2023-02-22T08:20:39;8.40;99.90
19279;DHT22;9773;47.062;15.446;2023-02-22T08:23:06;8.60;99.90
19279;DHT22;9773;47.062;15.446;2023-02-22T08:25:32;8.60;99.90
19279;DHT22;9773;47.062;15.446;2023-02-22T08:28:09;8.70;99.90
19279;DHT22;9773;47.062;15.446;2023-02-22T08:30:36;8.80;99.90
19279;DHT22;9773;47.062;15.446;2023-02-22T08:33:03;9.00;99.90
19279;DHT22;9773;47.062;15.446;2023-02-22T08:35:30;9.00;99.90
19279;DHT22;9773;47.062;15.446;2023-02-22T08:38:00;9.00;99.90
19279;DHT22;9773;47.062;15.446;2023-02-22T08:40:28;9.10;99.90
19279;DHT22;9773;47.062;15.446;2023-02-22T08:42:55;9.20;99.90
19279;DHT22;9773;47.062;15.446;2023-02-22T08:45:22;9.20;99.90
19279;DHT22;9773;47.062;15.446;2023-02-22T08:47:48;9.40;99.90
19279;DHT22;9773;47.062;15.446;2023-02-22T08:50:26;9.40;99.80
19279;DHT22;9773;47.062;15.446;2023-02-22T08:52:54;9.60;99.80
19279;DHT22;9773;47.062;15.446;2023-02-22T08:55:24;9.60;99.80
19279;DHT22;9773;47.062;15.446;2023-02-22T08:57:50;9.60;99.80
19279;DHT22;9773;47.062;15.446;2023-02-22T09:00:20;9.70;99.80
19279;DHT22;9773;47.062;15.446;2023-02-22T09:02:49;9.80;99.70
19279;DHT22;9773;47.062;15.446;2023-02-22T09:05:15;9.90;99.60
19279;DHT22;9773;47.062;15.446;2023-02-22T09:07:42;10.00;99.10
19279;DHT22;9773;47.062;15.446;2023-02-22T09:10:12;9.90;99.60
19279;DHT22;9773;47.062;15.446;2023-02-22T09:12:40;10.10;99.10
19279;DHT22;9773;47.062;15.446;2023-02-22T09:15:06;10.20;99.10
19279;DHT22;9773;47.062;15.446;2023-02-22T09:17:32;10.30;98.90
19279;DHT22;9773;47.062;15.446;2023-02-22T09:20:03;10.30;99.10
19279;DHT22;9773;47.062;15.446;2023-02-22T09:22:29;10.30;99.20
19279;DHT22;9773;47.062;15.446;2023-02-22T09:24:54;10.30;99.20
19279;DHT22;9773;47.062;15.446;2023-02-22T09:27:20;10.40;99.20
19279;DHT22;9773;47.062;15.446;2023-02-22T09:29:49;10.50;99.20
19279;DHT22;9773;47.062;15.446;2023-02-22T09:32:15;10.60;99.20
19279;DHT22;9773;47.062;15.446;2023-02-22T09:34:46;10.70;99.20
19279;DHT22;9773;47.062;15.446;2023-02-22T09:37:12;10.70;99.20
19279;DHT22;9773;47.062;15.446;2023-02-22T09:39:38;10.80;99.50
19279;DHT22;9773;47.062;15.446;2023-02-22T09:42:26;10.90;99.30
19279;DHT22;9773;47.062;15.446;2023-02-22T09:45:21;11.00;99.20
19279;DHT22;9773;47.062;15.446;2023-02-22T09:47:54;11.10;99.10
19279;DHT22;9773;47.062;15.446;2023-02-22T09:50:27;11.20;99.20
19279;DHT22;9773;47.062;15.446;2023-02-22T09:53:08;11.20;99.30
19279;DHT22;9773;47.062;15.446;2023-02-22T09:55:50;11.20;99.40
19279;DHT22;9773;47.062;15.446;2023-02-22T09:58:32;11.40;99.30
19279;DHT22;9773;47.062;15.446;2023-02-22T10:01:25;11.40;99.20
19279;DHT22;9773;47.062;15.446;2023-02-22T10:06:36;11.60;99.20
19279;DHT22;9773;47.062;15.446;2023-02-22T10:09:04;11.50;99.20
19279;DHT22;9773;47.062;15.446;2023-02-22T10:17:00;11.60;99.20
19279;DHT22;9773;47.062;15.446;2023-02-22T10:19:47;11.70;99.30
19279;DHT22;9773;47.062;15.446;2023-02-22T10:22:40;11.70;99.40
19279;DHT22;9773;47.062;15.446;2023-02-22T10:25:19;11.70;99.40
19279;DHT22;9773;47.062;15.446;2023-02-22T10:30:17;11.90;99.00
19279;DHT22;9773;47.062;15.446;2023-02-22T10:32:48;11.90;99.20
19279;DHT22;9773;47.062;15.446;2023-02-22T10:35:27;11.80;99.30
19279;DHT22;9773;47.062;15.446;2023-02-22T10:38:18;11.80;99.30
19279;DHT22;9773;47.062;15.446;2023-02-22T10:43:22;11.80;99.30
19279;DHT22;9773;47.062;15.446;2023-02-22T10:45:54;11.80;99.40
19279;DHT22;9773;47.062;15.446;2023-02-22T10:48:22;11.90;99.40
19279;DHT22;9773;47.062;15.446;2023-02-22T10:50:51;12.00;99.30
19279;DHT22;9773;47.062;15.446;2023-02-22T10:53:19;12.00;99.30
19279;DHT22;9773;47.062;15.446;2023-02-22T10:56:13;12.00;99.30
19279;DHT22;9773;47.062;15.446;2023-02-22T10:58:57;12.20;99.20
19279;DHT22;9773;47.062;15.446;2023-02-22T11:06:26;12.30;99.00
19279;DHT22;9773;47.062;15.446;2023-02-22T11:09:04;12.30;99.00
19279;DHT22;9773;47.062;15.446;2023-02-22T11:11:30;12.30;99.00
19279;DHT22;9773;47.062;15.446;2023-02-22T11:13:56;12.30;99.00
19279;DHT22;9773;47.062;15.446;2023-02-22T11:16:34;12.30;99.00
19279;DHT22;9773;47.062;15.446;2023-02-22T11:19:01;12.40;98.90
19279;DHT22;9773;47.062;15.446;2023-02-22T11:21:29;12.40;98.80
19279;DHT22;9773;47.062;15.446;2023-02-22T11:24:08;12.40;98.90
19279;DHT22;9773;47.062;15.446;2023-02-22T11:26:47;12.40;99.00
19279;DHT22;9773;47.062;15.446;2023-02-22T11:29:21;12.40;98.70
19279;DHT22;9773;47.062;15.446;2023-02-22T11:31:47;12.40;98.50
19279;DHT22;9773;47.062;15.446;2023-02-22T11:34:32;12.30;98.50
19279;DHT22;9773;47.062;15.446;2023-02-22T11:42:45;12.40;98.50
19279;DHT22;9773;47.062;15.446;2023-02-22T11:45:18;12.30;98.40
19279;DHT22;9773;47.062;15.446;2023-02-22T11:47:53;12.30;98.30
19279;DHT22;9773;47.062;15.446;2023-02-22T11:50:42;12.40;98.40
19279;DHT22;9773;47.062;15.446;2023-02-22T11:56:12;12.50;98.10
19279;DHT22;9773;47.062;15.446;2023-02-22T11:59:00;12.50;98.00
19279;DHT22;9773;47.062;15.446;2023-02-22T12:01:34;12.50;98.20
19279;DHT22;9773;47.062;15.446;2023-02-22T12:18:42;12.70;98.00
19279;DHT22;9773;47.062;15.446;2023-02-22T12:21:15;12.70;97.90
19279;DHT22;9773;47.062;15.446;2023-02-22T12:23:54;12.80;97.90
19279;DHT22;9773;47.062;15.446;2023-02-22T12:26:39;12.70;97.60
19279;DHT22;9773;47.062;15.446;2023-02-22T12:29:11;12.80;97.70
19279;DHT22;9773;47.062;15.446;2023-02-22T12:31:45;12.80;97.70
19279;DHT22;9773;47.062;15.446;2023-02-22T12:37:23;12.80;97.30
19279;DHT22;9773;47.062;15.446;2023-02-22T12:42:56;12.90;97.40
19279;DHT22;9773;47.062;15.446;2023-02-22T12:45:38;12.90;97.10
19279;DHT22;9773;47.062;15.446;2023-02-22T12:51:06;12.90;97.10
19279;DHT22;9773;47.062;15.446;2023-02-22T12:53:38;12.90;96.90
19279;DHT22;9773;47.062;15.446;2023-02-22T12:56:22;12.90;96.70
19279;DHT22;9773;47.062;15.446;2023-02-22T13:01:26;12.90;96.50
19279;DHT22;9773;47.062;15.446;2023-02-22T13:03:54;12.90;96.40
19279;DHT22;9773;47.062;15.446;2023-02-22T13:09:42;12.90;96.20
19279;DHT22;9773;47.062;15.446;2023-02-22T13:15:09;13.10;96.20
19279;DHT22;9773;47.062;15.446;2023-02-22T13:17:46;13.10;96.10
19279;DHT22;9773;47.062;15.446;2023-02-22T13:23:16;13.00;96.20
19279;DHT22;9773;47.062;15.446;2023-02-22T13:28:19;13.00;96.20
19279;DHT22;9773;47.062;15.446;2023-02-22T13:31:16;13.00;96.10
19279;DHT22;9773;47.062;15.446;2023-02-22T13:39:37;13.00;95.70
19279;DHT22;9773;47.062;15.446;2023-02-22T13:53:15;13.00;95.30
19279;DHT22;9773;47.062;15.446;2023-02-22T13:55:47;13.00;95.20
19279;DHT22;9773;47.062;15.446;2023-02-22T13:58:13;13.00;95.30
19279;DHT22;9773;47.062;15.446;2023-02-22T14:00:48;13.10;95.70
19279;DHT22;9773;47.062;15.446;2023-02-22T14:10:53;13.20;94.90
19279;DHT22;9773;47.062;15.446;2023-02-22T14:13:24;13.20;95.00
19279;DHT22;9773;47.062;15.446;2023-02-22T14:23:39;13.20;95.10
19279;DHT22;9773;47.062;15.446;2023-02-22T14:26:27;13.20;95.10
19279;DHT22;9773;47.062;15.446;2023-02-22T14:31:31;13.10;95.10
19279;DHT22;9773;47.062;15.446;2023-02-22T14:34:13;13.10;95.50
19279;DHT22;9773;47.062;15.446;2023-02-22T14:39:45;13.20;95.10
19279;DHT22;9773;47.062;15.446;2023-02-22T14:42:15;13.20;95.00
19279;DHT22;9773;47.062;15.446;2023-02-22T14:44:53;13.20;95.00
19279;DHT22;9773;47.062;15.446;2023-02-22T14:50:13;13.30;95.10
19279;DHT22;9773;47.062;15.446;2023-02-22T14:52:42;13.50;94.90
19279;DHT22;9773;47.062;15.446;2023-02-22T14:55:19;13.50;95.00
19279;DHT22;9773;47.062;15.446;2023-02-22T14:58:19;13.60;94.70
19279;DHT22;9773;47.062;15.446;2023-02-22T15:00:48;13.50;94.70
19279;DHT22;9773;47.062;15.446;2023-02-22T15:03:27;13.50;94.80
19279;DHT22;9773;47.062;15.446;2023-02-22T15:06:03;13.40;94.90
19279;DHT22;9773;47.062;15.446;2023-02-22T15:08:29;13.40;94.80
19279;DHT22;9773;47.062;15.446;2023-02-22T15:10:56;13.30;94.70
19279;DHT22;9773;47.062;15.446;2023-02-22T15:13:26;13.40;94.80
19279;DHT22;9773;47.062;15.446;2023-02-22T15:15:56;13.40;94.70
19279;DHT22;9773;47.062;15.446;2023-02-22T15:21:12;13.30;94.80
19279;DHT22;9773;47.062;15.446;2023-02-22T15:24:03;13.20;95.00
19279;DHT22;9773;47.062;15.446;2023-02-22T15:26:37;13.10;95.20
19279;DHT22;9773;47.062;15.446;2023-02-22T15:29:22;13.00;95.30
19279;DHT22;9773;47.062;15.446;2023-02-22T15:31:50;13.00;95.30
19279;DHT22;9773;47.062;15.446;2023-02-22T15:34:31;13.00;95.30
19279;DHT22;9773;47.062;15.446;2023-02-22T15:37:13;12.90;95.50
19279;DHT22;9773;47.062;15.446;2023-02-22T15:39:43;12.90;95.60
19279;DHT22;9773;47.062;15.446;2023-02-22T15:42:14;12.80;95.60
19279;DHT22;9773;47.062;15.446;2023-02-22T15:44:51;12.80;95.70
19279;DHT22;9773;47.062;15.446;2023-02-22T15:47:23;12.80;95.70
19279;DHT22;9773;47.062;15.446;2023-02-22T15:50:16;12.70;95.80
19279;DHT22;9773;47.062;15.446;2023-02-22T15:53:00;12.70;95.90
19279;DHT22;9773;47.062;15.446;2023-02-22T15:55:33;12.60;96.10
19279;DHT22;9773;47.062;15.446;2023-02-22T15:58:18;12.60;96.30
19279;DHT22;9773;47.062;15.446;2023-02-22T16:01:07;12.60;96.50
19279;DHT22;9773;47.062;15.446;2023-02-22T16:03:44;12.60;96.70
19279;DHT22;9773;47.062;15.446;2023-02-22T16:08:50;12.50;96.90
19279;DHT22;9773;47.062;15.446;2023-02-22T16:11:29;12.40;96.90
19279;DHT22;9773;47.062;15.446;2023-02-22T16:14:03;12.40;97.00
19279;DHT22;9773;47.062;15.446;2023-02-22T16:16:35;12.40;97.10
19279;DHT22;9773;47.062;15.446;2023-02-22T16:21:56;12.30;97.30
19279;DHT22;9773;47.062;15.446;2023-02-22T16:24:31;12.20;97.30
19279;DHT22;9773;47.062;15.446;2023-02-22T16:29:40;12.20;97.50
19279;DHT22;9773;47.062;15.446;2023-02-22T16:32:10;12.10;97.50
19279;DHT22;9773;47.062;15.446;2023-02-22T16:34:38;12.00;97.70
19279;DHT22;9773;47.062;15.446;2023-02-22T16:37:04;12.00;97.80
19279;DHT22;9773;47.062;15.446;2023-02-22T16:39:31;11.90;97.90
19279;DHT22;9773;47.062;15.446;2023-02-22T16:42:03;11.90;98.00
19279;DHT22;9773;47.062;15.446;2023-02-22T16:44:29;11.80;98.20
19279;DHT22;9773;47.062;15.446;2023-02-22T16:46:57;11.80;98.50
19279;DHT22;9773;47.062;15.446;2023-02-22T16:49:24;11.70;98.60
19279;DHT22;9773;47.062;15.446;2023-02-22T16:51:52;11.70;98.50
19279;DHT22;9773;47.062;15.446;2023-02-22T16:54:29;11.60;98.70
19279;DHT22;9773;47.062;15.446;2023-02-22T16:57:00;11.60;98.80
19279;DHT22;9773;47.062;15.446;2023-02-22T16:59:27;11.60;98.90
19279;DHT22;9773;47.062;15.446;2023-02-22T17:01:55;11.50;98.90
19279;DHT22;9773;47.062;15.446;2023-02-22T17:04:24;11.40;98.90
19279;DHT22;9773;47.062;15.446;2023-02-22T17:06:51;11.40;99.10
19279;DHT22;9773;47.062;15.446;2023-02-22T17:09:18;11.40;99.20
19279;DHT22;9773;47.062;15.446;2023-02-22T17:11:49;11.30;99.10
19279;DHT22;9773;47.062;15.446;2023-02-22T17:14:19;11.30;99.30
19279;DHT22;9773;47.062;15.446;2023-02-22T17:16:48;11.30;99.50
19279;DHT22;9773;47.062;15.446;2023-02-22T17:19:17;11.20;99.40
19279;DHT22;9773;47.062;15.446;2023-02-22T17:21:44;11.20;99.40
19279;DHT22;9773;47.062;15.446;2023-02-22T17:24:17;11.10;99.50
19279;DHT22;9773;47.062;15.446;2023-02-22T17:26:45;11.10;99.70
19279;DHT22;9773;47.062;15.446;2023-02-22T17:29:11;11.10;99.60
19279;DHT22;9773;47.062;15.446;2023-02-22T17:31:38;11.00;99.60
19279;DHT22;9773;47.062;15.446;2023-02-22T17:34:05;11.00;99.80
19279;DHT22;9773;47.062;15.446;2023-02-22T17:36:32;11.00;99.80
19279;DHT22;9773;47.062;15.446;2023-02-22T17:38:59;11.00;99.90
19279;DHT22;9773;47.062;15.446;2023-02-22T17:41:25;11.00;99.80
19279;DHT22;9773;47.062;15.446;2023-02-22T17:43:51;10.90;99.80
19279;DHT22;9773;47.062;15.446;2023-02-22T17:46:19;10.90;99.90
19279;DHT22;9773;47.062;15.446;2023-02-22T17:48:46;11.00;99.90
19279;DHT22;9773;47.062;15.446;2023-02-22T17:51:14;11.00;99.90
19279;DHT22;9773;47.062;15.446;2023-02-22T17:53:40;11.00;99.90
19279;DHT22;9773;47.062;15.446;2023-02-22T17:56:08;10.90;99.90
19279;DHT22;9773;47.062;15.446;2023-02-22T17:58:35;10.90;99.90
19279;DHT22;9773;47.062;15.446;2023-02-22T18:01:02;10.90;99.90
19279;DHT22;9773;47.062;15.446;2023-02-22T18:03:30;10.90;99.90
19279;DHT22;9773;47.062;15.446;2023-02-22T18:05:59;10.80;99.90
19279;DHT22;9773;47.062;15.446;2023-02-22T18:08:27;10.70;99.90
19279;DHT22;9773;47.062;15.446;2023-02-22T18:10:54;10.60;99.90
19279;DHT22;9773;47.062;15.446;2023-02-22T18:13:27;10.60;99.90
19279;DHT22;9773;47.062;15.446;2023-02-22T18:15:56;10.50;99.90
19279;DHT22;9773;47.062;15.446;2023-02-22T18:18:25;10.40;99.90
19279;DHT22;9773;47.062;15.446;2023-02-22T18:20:52;10.30;99.90
19279;DHT22;9773;47.062;15.446;2023-02-22T18:23:32;10.30;99.90
19279;DHT22;9773;47.062;15.446;2023-02-22T18:25:59;10.20;99.90
19279;DHT22;9773;47.062;15.446;2023-02-22T18:28:26;10.10;99.90